Time;durP1;ratioP1;P1;durP2;ratioP2;P2;SDS_P1;SDS_P2;PMS_P1;PMS_P2;Temp;Humidity;BMP_temperature;BMP_pressure;BME280_temperature;BME280_humidity;BME280_pressure;Samples;Min_cycle;Max_cycle;Signal;HPM_P1;HPM_P2
2024/04/08 00:00:27;;;;;;;11.77;4.05;;;;;;;;;;5031587;28;20022;-74
2024/04/08 00:02:53;;;;;;;25.60;6.07;;;;;;;;;;5031094;28;20028;-73
2024/04/08 00:05:20;;;;;;;17.27;3.80;;;;;;;;;;5013776;28;20036;-74
2024/04/08 00:07:46;;;;;;;13.90;4.82;;;;;;;;;;5031655;28;20365;-74
2024/04/08 00:10:12;;;;;;;11.98;3.40;;;;;;;;;;5013680;28;20048;-73
2024/04/08 00:12:39;;;;;;;18.90;4.18;;;;;;;;;;5031254;28;20049;-73
2024/04/08 00:15:06;;;;;;;7.38;3.03;;;;;;;;;;5031659;28;20075;-74
2024/04/08 00:17:32;;;;;;;12.30;3.92;;;;;;;;;;5031486;28;20021;-74
2024/04/08 00:19:58;;;;;;;8.65;3.63;;;;;;;;;;5013681;28;20061;-73
2024/04/08 00:22:24;;;;;;;15.80;3.60;;;;;;;;;;5031523;28;20476;-73
2024/04/08 00:24:53;;;;;;;10.55;3.25;;;;;;;;;;5031506;28;20036;-74
2024/04/08 00:27:19;;;;;;;9.30;3.45;;;;;;;;;;5031537;28;20025;-74
2024/04/08 00:29:46;;;;;;;9.50;3.20;;;;;;;;;;5013684;28;20028;-73
2024/04/08 00:32:12;;;;;;;9.30;3.85;;;;;;;;;;5031411;28;20021;-73
2024/04/08 00:34:39;;;;;;;16.15;3.10;;;;;;;;;;5031316;28;20032;-73
2024/04/08 00:37:05;;;;;;;8.70;3.53;;;;;;;;;;5031782;28;20108;-73
2024/04/08 00:39:31;;;;;;;14.02;3.55;;;;;;;;;;5031281;28;20021;-74
2024/04/08 00:41:58;;;;;;;9.80;3.38;;;;;;;;;;5031209;28;20037;-74
2024/04/08 00:44:24;;;;;;;7.90;2.85;;;;;;;;;;5031492;28;20032;-74
2024/04/08 00:46:50;;;;;;;12.23;3.92;;;;;;;;;;5031247;28;20029;-73
2024/04/08 00:49:16;;;;;;;12.05;3.60;;;;;;;;;;5013531;28;20039;-73
2024/04/08 00:51:44;;;;;;;13.05;3.63;;;;;;;;;;5013972;28;20376;-73
2024/04/08 00:54:10;;;;;;;16.10;3.50;;;;;;;;;;5036161;28;20055;-75
2024/04/08 00:56:37;;;;;;;11.70;2.83;;;;;;;;;;5020896;28;20025;-74
2024/04/08 00:59:05;;;;;;;9.82;3.42;;;;;;;;;;5037358;28;20022;-74
2024/04/08 01:01:32;;;;;;;10.35;3.35;;;;;;;;;;5017167;28;20083;-74
2024/04/08 01:03:58;;;;;;;13.73;2.90;;;;;;;;;;5016851;28;20071;-74
2024/04/08 01:06:24;;;;;;;16.48;3.95;;;;;;;;;;5034802;28;20375;-72
2024/04/08 01:08:51;;;;;;;16.33;4.03;;;;;;;;;;5034752;28;20029;-74
2024/04/08 01:11:17;;;;;;;16.00;3.38;;;;;;;;;;5034639;28;20053;-73
2024/04/08 01:13:43;;;;;;;14.18;3.63;;;;;;;;;;5034635;28;20057;-74
2024/04/08 01:16:09;;;;;;;12.60;4.10;;;;;;;;;;5035021;28;20112;-73
2024/04/08 01:18:35;;;;;;;10.93;3.47;;;;;;;;;;5017241;28;20021;-73
2024/04/08 01:21:01;;;;;;;13.27;3.65;;;;;;;;;;5034705;28;20018;-74
2024/04/08 01:23:29;;;;;;;16.08;4.22;;;;;;;;;;5034632;28;20041;-74
2024/04/08 01:25:55;;;;;;;11.55;2.67;;;;;;;;;;5036469;28;20032;-74
2024/04/08 01:28:22;;;;;;;15.32;3.75;;;;;;;;;;5035119;28;20427;-74
2024/04/08 01:30:49;;;;;;;15.45;4.70;;;;;;;;;;5034556;28;20060;-74
2024/04/08 01:33:16;;;;;;;15.70;3.70;;;;;;;;;;5034264;28;20429;-73
2024/04/08 01:35:42;;;;;;;11.68;3.30;;;;;;;;;;5034385;28;20025;-74
2024/04/08 01:38:08;;;;;;;11.98;3.65;;;;;;;;;;5034268;28;20100;-74
2024/04/08 01:40:34;;;;;;;17.95;3.15;;;;;;;;;;5016954;28;20067;-73
2024/04/08 01:43:00;;;;;;;14.93;3.22;;;;;;;;;;5034149;28;20030;-74
2024/04/08 01:45:26;;;;;;;14.98;3.15;;;;;;;;;;5016261;28;20109;-73
2024/04/08 01:47:52;;;;;;;9.88;3.28;;;;;;;;;;5034165;28;20108;-73
2024/04/08 01:50:18;;;;;;;8.57;2.80;;;;;;;;;;5034004;28;20418;-74
2024/04/08 01:52:44;;;;;;;9.02;2.58;;;;;;;;;;5016113;28;20033;-74
2024/04/08 01:55:10;;;;;;;16.25;3.05;;;;;;;;;;5017110;28;20029;-74
2024/04/08 01:57:36;;;;;;;12.45;2.47;;;;;;;;;;5035052;28;20022;-74
2024/04/08 02:00:02;;;;;;;14.95;3.20;;;;;;;;;;5035480;28;20029;-74
2024/04/08 02:02:28;;;;;;;10.85;3.28;;;;;;;;;;5034840;28;20025;-74
2024/04/08 02:04:54;;;;;;;11.50;2.80;;;;;;;;;;5034762;28;20109;-74
2024/04/08 02:07:20;;;;;;;10.07;2.55;;;;;;;;;;5018713;28;20503;-74
2024/04/08 02:09:46;;;;;;;14.10;4.20;;;;;;;;;;5033875;28;20136;-74
2024/04/08 02:12:12;;;;;;;10.95;3.17;;;;;;;;;;5015521;28;20041;-73
2024/04/08 02:14:38;;;;;;;24.45;4.47;;;;;;;;;;5033257;28;20026;-73
2024/04/08 02:17:04;;;;;;;16.17;4.20;;;;;;;;;;5033400;28;20029;-75
2024/04/08 02:19:30;;;;;;;15.48;3.22;;;;;;;;;;5033388;28;20029;-73
2024/04/08 02:21:56;;;;;;;9.15;3.30;;;;;;;;;;5032880;28;20017;-74
2024/04/08 02:24:22;;;;;;;10.88;2.85;;;;;;;;;;5015372;28;20152;-73
2024/04/08 02:26:48;;;;;;;13.57;3.58;;;;;;;;;;5033584;28;20064;-74
2024/04/08 02:29:14;;;;;;;14.18;3.65;;;;;;;;;;5015906;28;20400;-74
2024/04/08 02:31:40;;;;;;;14.50;3.05;;;;;;;;;;5033196;28;20045;-74
2024/04/08 02:34:06;;;;;;;12.23;4.38;;;;;;;;;;5033291;28;20496;-75
2024/04/08 02:36:32;;;;;;;15.55;3.22;;;;;;;;;;5016660;28;20026;-74
2024/04/08 02:38:58;;;;;;;16.63;3.22;;;;;;;;;;5034994;28;20021;-74
2024/04/08 02:41:24;;;;;;;12.32;3.88;;;;;;;;;;5034779;28;20032;-74
2024/04/08 02:43:50;;;;;;;19.90;3.90;;;;;;;;;;5034443;28;20076;-74
2024/04/08 02:46:16;;;;;;;17.70;3.58;;;;;;;;;;5034570;28;20038;-73
2024/04/08 02:48:42;;;;;;;12.25;3.08;;;;;;;;;;5035764;28;20034;-74
2024/04/08 02:51:08;;;;;;;18.45;3.80;;;;;;;;;;5036300;28;20023;-73
2024/04/08 02:53:34;;;;;;;12.02;3.72;;;;;;;;;;5016182;28;20104;-75
2024/04/08 02:56:00;;;;;;;13.73;3.67;;;;;;;;;;5017686;28;20110;-75
2024/04/08 02:58:27;;;;;;;15.68;3.45;;;;;;;;;;5035642;28;20080;-74
2024/04/08 03:00:53;;;;;;;8.85;3.38;;;;;;;;;;5034696;28;20029;-73
2024/04/08 03:03:19;;;;;;;15.32;3.30;;;;;;;;;;5033790;28;20448;-73
2024/04/08 03:05:45;;;;;;;16.38;4.30;;;;;;;;;;5033088;28;20022;-73
2024/04/08 03:08:11;;;;;;;16.75;3.42;;;;;;;;;;5033155;28;20345;-73
2024/04/08 03:10:37;;;;;;;13.80;3.38;;;;;;;;;;5033872;28;20444;-73
2024/04/08 03:13:04;;;;;;;13.93;3.72;;;;;;;;;;5033423;28;20056;-73
2024/04/08 03:15:30;;;;;;;17.05;3.70;;;;;;;;;;5036201;28;20025;-73
2024/04/08 03:17:56;;;;;;;19.13;3.47;;;;;;;;;;5033000;28;20403;-74
2024/04/08 03:20:22;;;;;;;11.40;2.78;;;;;;;;;;5033220;28;20037;-73
2024/04/08 03:22:47;;;;;;;14.80;3.10;;;;;;;;;;5032611;28;20026;-73
2024/04/08 03:25:14;;;;;;;13.65;3.30;;;;;;;;;;5033164;28;20111;-73
2024/04/08 03:27:41;;;;;;;16.00;3.42;;;;;;;;;;5015205;28;20061;-73
2024/04/08 03:30:08;;;;;;;13.18;2.80;;;;;;;;;;5032785;28;20032;-73
2024/04/08 03:32:34;;;;;;;9.40;3.03;;;;;;;;;;5015124;28;20022;-74
2024/04/08 03:35:00;;;;;;;11.55;3.10;;;;;;;;;;5014557;28;20025;-73
2024/04/08 03:37:26;;;;;;;11.95;3.40;;;;;;;;;;5032445;28;20466;-72
2024/04/08 03:39:52;;;;;;;8.18;3.33;;;;;;;;;;5032784;28;20459;-74
2024/04/08 03:42:20;;;;;;;11.52;3.30;;;;;;;;;;5014969;28;20025;-74
2024/04/08 03:44:49;;;;;;;10.07;3.25;;;;;;;;;;5034310;28;20025;-73
2024/04/08 03:47:15;;;;;;;15.90;4.20;;;;;;;;;;5034530;28;20116;-72
2024/04/08 03:49:41;;;;;;;13.63;3.53;;;;;;;;;;5015061;28;20460;-73
2024/04/08 03:52:07;;;;;;;10.25;3.65;;;;;;;;;;5032801;28;20057;-73
2024/04/08 03:54:33;;;;;;;14.20;4.18;;;;;;;;;;5014983;28;20478;-74
2024/04/08 03:56:59;;;;;;;8.57;3.22;;;;;;;;;;5033127;28;20064;-73
2024/04/08 03:59:25;;;;;;;14.18;4.25;;;;;;;;;;5032989;28;20021;-72
2024/04/08 04:01:51;;;;;;;13.90;3.53;;;;;;;;;;5031935;28;20036;-73
2024/04/08 04:04:17;;;;;;;13.93;3.67;;;;;;;;;;5032493;28;20125;-73
2024/04/08 04:06:43;;;;;;;14.95;4.20;;;;;;;;;;5032206;28;20381;-73
2024/04/08 04:09:12;;;;;;;14.52;4.00;;;;;;;;;;5032238;28;20025;-75
2024/04/08 04:11:38;;;;;;;20.00;4.05;;;;;;;;;;5032302;28;20112;-73
2024/04/08 04:14:05;;;;;;;11.15;3.40;;;;;;;;;;5032530;28;20025;-73
2024/04/08 04:16:31;;;;;;;8.00;2.90;;;;;;;;;;5017240;28;20473;-74
2024/04/08 04:18:57;;;;;;;10.30;3.45;;;;;;;;;;5033024;28;20021;-73
2024/04/08 04:21:23;;;;;;;14.82;3.72;;;;;;;;;;5032850;28;20030;-73
2024/04/08 04:23:49;;;;;;;13.63;4.28;;;;;;;;;;5032507;28;20076;-72
2024/04/08 04:26:15;;;;;;;22.13;3.92;;;;;;;;;;5031892;28;20025;-74
2024/04/08 04:28:41;;;;;;;10.18;3.50;;;;;;;;;;5036304;28;20024;-73
2024/04/08 04:31:07;;;;;;;9.57;2.67;;;;;;;;;;5018273;28;20459;-73
2024/04/08 04:33:33;;;;;;;22.40;4.47;;;;;;;;;;5036058;28;20116;-72
2024/04/08 04:35:59;;;;;;;10.10;3.13;;;;;;;;;;5037012;28;20369;-73
2024/04/08 04:38:26;;;;;;;13.60;3.38;;;;;;;;;;5036564;28;20510;-74
2024/04/08 04:41:01;;;;;;;8.00;2.88;;;;;;;;;;5036425;28;20025;-73
2024/04/08 04:43:28;;;;;;;8.00;3.15;;;;;;;;;;5035781;28;20031;-73
2024/04/08 04:45:54;;;;;;;16.48;3.10;;;;;;;;;;5035301;28;20033;-72
2024/04/08 04:48:20;;;;;;;12.55;2.97;;;;;;;;;;5017194;28;20029;-73
2024/04/08 04:50:46;;;;;;;10.70;3.50;;;;;;;;;;5035194;28;20392;-73
2024/04/08 04:53:12;;;;;;;16.38;3.65;;;;;;;;;;5017883;28;20033;-74
2024/04/08 04:55:39;;;;;;;12.27;2.85;;;;;;;;;;5035608;28;20048;-73
2024/04/08 04:58:06;;;;;;;26.13;3.35;;;;;;;;;;5035962;28;20025;-73
2024/04/08 05:00:34;;;;;;;8.68;3.20;;;;;;;;;;5017490;28;20075;-74
2024/04/08 05:03:00;;;;;;;9.90;3.45;;;;;;;;;;5034962;28;20040;-73
2024/04/08 05:05:26;;;;;;;14.63;2.78;;;;;;;;;;5017317;28;20159;-74
2024/04/08 05:07:52;;;;;;;14.18;2.95;;;;;;;;;;5035029;28;20138;-72
2024/04/08 05:10:18;;;;;;;10.88;2.55;;;;;;;;;;5017116;28;20029;-74
2024/04/08 05:12:44;;;;;;;9.98;2.70;;;;;;;;;;5034480;28;20025;-72
2024/04/08 05:15:10;;;;;;;7.85;3.20;;;;;;;;;;5017515;28;20365;-74
2024/04/08 05:17:36;;;;;;;11.10;2.85;;;;;;;;;;5035531;28;20075;-73
2024/04/08 05:20:03;;;;;;;12.68;2.30;;;;;;;;;;5035902;28;20100;-74
2024/04/08 05:22:30;;;;;;;15.10;3.13;;;;;;;;;;5037372;28;20109;-74
2024/04/08 05:24:56;;;;;;;9.48;2.35;;;;;;;;;;5043859;28;20036;-74
2024/04/08 05:27:23;;;;;;;4.53;1.83;;;;;;;;;;5025418;28;20030;-74
2024/04/08 05:29:49;;;;;;;7.50;1.88;;;;;;;;;;5044935;28;20030;-74
2024/04/08 05:32:15;;;;;;;12.93;2.90;;;;;;;;;;5023316;28;20423;-75
2024/04/08 05:34:41;;;;;;;12.32;3.05;;;;;;;;;;5041233;28;20469;-74
2024/04/08 05:37:07;;;;;;;9.30;1.98;;;;;;;;;;5018106;28;20049;-73
2024/04/08 05:39:34;;;;;;;9.70;2.70;;;;;;;;;;5034242;28;20017;-74
2024/04/08 05:42:00;;;;;;;7.25;2.25;;;;;;;;;;5016631;28;20022;-73
2024/04/08 05:44:26;;;;;;;11.13;2.53;;;;;;;;;;5034464;28;20022;-73
2024/04/08 05:46:52;;;;;;;10.20;2.83;;;;;;;;;;5034537;28;20060;-74
2024/04/08 05:49:18;;;;;;;8.65;2.47;;;;;;;;;;5034406;28;20108;-74
2024/04/08 05:51:44;;;;;;;8.40;2.38;;;;;;;;;;5034539;28;20029;-73
2024/04/08 05:54:10;;;;;;;10.63;2.55;;;;;;;;;;5036816;28;20021;-73
2024/04/08 05:56:36;;;;;;;8.40;2.53;;;;;;;;;;5017094;28;20021;-74
2024/04/08 05:59:02;;;;;;;19.10;2.65;;;;;;;;;;5034370;28;20106;-74
2024/04/08 06:01:28;;;;;;;18.10;3.00;;;;;;;;;;5016104;28;20025;-73
2024/04/08 06:03:54;;;;;;;11.35;2.90;;;;;;;;;;5034703;28;20021;-74
2024/04/08 06:06:20;;;;;;;15.05;3.60;;;;;;;;;;5035060;28;20110;-73
2024/04/08 06:08:57;;;;;;;10.00;2.80;;;;;;;;;;5035497;28;20073;-74
2024/04/08 06:11:23;;;;;;;13.90;2.67;;;;;;;;;;5035730;28;20036;-74
2024/04/08 06:13:49;;;;;;;12.60;3.17;;;;;;;;;;5035751;28;20037;-75
2024/04/08 06:16:15;;;;;;;16.15;2.50;;;;;;;;;;5035054;28;20065;-73
2024/04/08 06:18:41;;;;;;;12.70;2.67;;;;;;;;;;5039318;28;20052;-75
2024/04/08 06:21:07;;;;;;;20.85;3.17;;;;;;;;;;5020561;28;20026;-75
2024/04/08 06:23:33;;;;;;;12.55;3.72;;;;;;;;;;5037305;28;20029;-75
2024/04/08 06:26:03;;;;;;;9.63;2.63;;;;;;;;;;5034739;28;20495;-75
2024/04/08 06:28:30;;;;;;;17.88;3.05;;;;;;;;;;5015212;28;20052;-74
2024/04/08 06:30:56;;;;;;;8.55;2.65;;;;;;;;;;5015987;28;20025;-75
2024/04/08 06:33:22;;;;;;;10.10;2.60;;;;;;;;;;5034535;28;20028;-74
2024/04/08 06:35:49;;;;;;;14.50;3.58;;;;;;;;;;5033999;28;20115;-73
2024/04/08 06:38:15;;;;;;;17.13;2.80;;;;;;;;;;5034534;28;20104;-74
2024/04/08 06:40:41;;;;;;;11.73;3.10;;;;;;;;;;5015925;28;20025;-74
2024/04/08 06:43:07;;;;;;;14.32;3.15;;;;;;;;;;5034124;28;20439;-76
2024/04/08 06:45:33;;;;;;;16.73;3.22;;;;;;;;;;5033644;28;20040;-75
2024/04/08 06:47:59;;;;;;;13.50;2.75;;;;;;;;;;5015370;28;20021;-74
2024/04/08 06:50:25;;;;;;;15.52;3.33;;;;;;;;;;5015306;28;20097;-75
2024/04/08 06:52:51;;;;;;;13.13;3.20;;;;;;;;;;5033792;28;20504;-75
2024/04/08 06:55:18;;;;;;;11.60;3.10;;;;;;;;;;5032961;28;20033;-75
2024/04/08 06:59:03;;;;;;;12.88;2.80;;;;;;;;;;5505622;25;20334;-75
2024/04/08 07:01:30;;;;;;;9.40;3.03;;;;;;;;;;5506321;25;20078;-75
2024/04/08 07:03:56;;;;;;;13.27;4.55;;;;;;;;;;5535182;25;20086;-75
2024/04/08 07:06:22;;;;;;;10.15;2.67;;;;;;;;;;5506025;26;20355;-74
2024/04/08 07:08:48;;;;;;;10.32;3.00;;;;;;;;;;5527073;25;20057;-74
2024/04/08 07:11:14;;;;;;;13.70;3.03;;;;;;;;;;5514576;25;19994;-75
2024/04/08 07:13:40;;;;;;;11.13;3.05;;;;;;;;;;5540342;25;20037;-74
2024/04/08 07:16:07;;;;;;;10.30;3.22;;;;;;;;;;5543975;25;19989;-75
2024/04/08 07:18:34;;;;;;;12.95;2.17;;;;;;;;;;5545295;25;20003;-74
2024/04/08 07:21:02;;;;;;;16.20;2.63;;;;;;;;;;5537148;25;20000;-72
2024/04/08 07:23:28;;;;;;;13.98;3.17;;;;;;;;;;5477628;26;20007;-72
2024/04/08 07:25:54;;;;;;;9.70;2.53;;;;;;;;;;5477330;26;20125;-73
2024/04/08 07:28:20;;;;;;;10.02;2.45;;;;;;;;;;5501314;26;19993;-72
2024/04/08 07:30:46;;;;;;;8.23;2.00;;;;;;;;;;5487142;26;20072;-72
2024/04/08 07:33:12;;;;;;;15.98;2.58;;;;;;;;;;5469986;25;20073;-73
2024/04/08 07:35:38;;;;;;;9.10;2.20;;;;;;;;;;5468920;26;20065;-73
2024/04/08 07:38:04;;;;;;;8.98;2.28;;;;;;;;;;5469162;26;20006;-73
2024/04/08 07:40:30;;;;;;;14.00;2.92;;;;;;;;;;5468120;26;19994;-72
2024/04/08 07:42:56;;;;;;;19.42;3.30;;;;;;;;;;5467887;26;20005;-72
2024/04/08 07:45:22;;;;;;;8.70;1.60;;;;;;;;;;5468883;26;19995;-72
2024/04/08 07:47:48;;;;;;;9.82;2.53;;;;;;;;;;5469465;26;19996;-72
2024/04/08 07:50:15;;;;;;;14.23;2.78;;;;;;;;;;5470211;26;19991;-73
2024/04/08 07:52:41;;;;;;;15.15;2.20;;;;;;;;;;5465175;26;20487;-72
2024/04/08 07:55:07;;;;;;;10.25;2.22;;;;;;;;;;5470021;26;19995;-72
2024/04/08 07:57:34;;;;;;;12.57;2.50;;;;;;;;;;5469831;26;20327;-73
2024/04/08 08:00:00;;;;;;;8.75;1.80;;;;;;;;;;5467339;26;20022;-72
2024/04/08 08:02:26;;;;;;;11.80;3.20;;;;;;;;;;5469510;26;19987;-71
2024/04/08 08:04:52;;;;;;;10.82;1.98;;;;;;;;;;5470663;26;19990;-72
2024/04/08 08:07:18;;;;;;;12.18;2.78;;;;;;;;;;5471708;26;19991;-74
2024/04/08 08:09:44;;;;;;;9.48;2.10;;;;;;;;;;5460367;26;19987;-74
2024/04/08 08:12:10;;;;;;;10.50;2.20;;;;;;;;;;5458383;26;20074;-75
2024/04/08 08:14:36;;;;;;;10.52;2.30;;;;;;;;;;5458221;26;20005;-75
2024/04/08 08:17:02;;;;;;;14.85;2.53;;;;;;;;;;5458168;26;19994;-73
2024/04/08 08:19:28;;;;;;;11.05;2.38;;;;;;;;;;5458116;26;20002;-75
2024/04/08 08:21:54;;;;;;;15.93;2.30;;;;;;;;;;5457392;26;20113;-75
2024/04/08 08:24:21;;;;;;;11.18;3.15;;;;;;;;;;5457413;26;19995;-74
2024/04/08 08:26:47;;;;;;;7.45;2.58;;;;;;;;;;5459035;26;20026;-74
2024/04/08 08:29:13;;;;;;;8.27;2.15;;;;;;;;;;5458922;26;19997;-74
2024/04/08 08:31:39;;;;;;;9.02;2.00;;;;;;;;;;5461134;26;19995;-75
2024/04/08 08:34:05;;;;;;;9.65;2.28;;;;;;;;;;5461293;26;19998;-74
2024/04/08 08:36:31;;;;;;;7.40;1.80;;;;;;;;;;5453691;26;20092;-75
2024/04/08 08:38:57;;;;;;;11.48;2.55;;;;;;;;;;5456050;26;20002;-74
2024/04/08 08:41:24;;;;;;;8.10;1.90;;;;;;;;;;5454952;26;20121;-74
2024/04/08 08:43:51;;;;;;;7.32;2.05;;;;;;;;;;5455037;26;20347;-75
2024/04/08 08:46:17;;;;;;;18.77;3.47;;;;;;;;;;5455413;26;19994;-74
2024/04/08 08:48:44;;;;;;;8.95;2.05;;;;;;;;;;5454191;26;20007;-75
2024/04/08 08:51:11;;;;;;;10.70;2.83;;;;;;;;;;5455734;26;20358;-75
2024/04/08 08:53:37;;;;;;;9.73;2.25;;;;;;;;;;5456737;26;20397;-75
2024/04/08 08:56:03;;;;;;;17.48;2.60;;;;;;;;;;5457940;26;19990;-75
2024/04/08 08:58:30;;;;;;;5.97;2.08;;;;;;;;;;5455595;26;19991;-75
2024/04/08 09:00:57;;;;;;;13.35;2.72;;;;;;;;;;5454572;26;19998;-74
2024/04/08 09:03:27;;;;;;;7.53;2.00;;;;;;;;;;5455241;26;19991;-75
2024/04/08 09:05:55;;;;;;;10.35;2.60;;;;;;;;;;5455060;26;19991;-75
2024/04/08 09:08:21;;;;;;;14.75;2.92;;;;;;;;;;5457285;26;20002;-75
2024/04/08 09:10:48;;;;;;;15.85;2.92;;;;;;;;;;5454173;26;20399;-75
2024/04/08 09:13:19;;;;;;;14.45;2.50;;;;;;;;;;5453142;26;19995;-74
2024/04/08 09:15:46;;;;;;;10.32;2.20;;;;;;;;;;5454596;26;19991;-75
2024/04/08 09:18:12;;;;;;;11.13;2.65;;;;;;;;;;5454618;26;20005;-75
2024/04/08 09:20:38;;;;;;;13.50;2.10;;;;;;;;;;5451848;26;20345;-73
2024/04/08 09:23:04;;;;;;;13.10;2.00;;;;;;;;;;5453809;26;20027;-74
2024/04/08 09:25:30;;;;;;;12.15;2.78;;;;;;;;;;5453861;26;20002;-73
2024/04/08 09:27:56;;;;;;;7.72;2.30;;;;;;;;;;5452983;26;19994;-74
2024/04/08 09:30:22;;;;;;;7.10;2.10;;;;;;;;;;5457269;26;19999;-75
2024/04/08 09:32:48;;;;;;;8.55;2.40;;;;;;;;;;5454608;26;19995;-74
2024/04/08 09:35:15;;;;;;;8.57;2.25;;;;;;;;;;5454451;26;20475;-75
2024/04/08 09:37:41;;;;;;;12.65;2.17;;;;;;;;;;5453340;26;19991;-74
2024/04/08 09:40:08;;;;;;;10.48;3.13;;;;;;;;;;5455255;26;20068;-75
2024/04/08 09:42:35;;;;;;;12.20;1.80;;;;;;;;;;5456371;26;20006;-74
2024/04/08 09:45:03;;;;;;;22.17;3.25;;;;;;;;;;5453725;26;19994;-74
2024/04/08 09:47:30;;;;;;;9.90;2.72;;;;;;;;;;5453207;26;20010;-74
2024/04/08 09:49:59;;;;;;;13.35;2.33;;;;;;;;;;5454290;26;20003;-75
2024/04/08 09:52:25;;;;;;;14.27;2.00;;;;;;;;;;5456037;26;20006;-75
2024/04/08 09:54:57;;;;;;;8.60;1.88;;;;;;;;;;5455817;26;20490;-75
2024/04/08 09:57:27;;;;;;;11.77;2.70;;;;;;;;;;5454372;26;20298;-75
2024/04/08 09:59:57;;;;;;;18.77;2.72;;;;;;;;;;5452476;26;19998;-75
2024/04/08 10:02:36;;;;;;;12.48;2.10;;;;;;;;;;5454583;26;19995;-75
2024/04/08 10:05:03;;;;;;;15.65;2.83;;;;;;;;;;5454870;26;19999;-75
2024/04/08 10:07:30;;;;;;;9.77;2.28;;;;;;;;;;5453676;26;20043;-74
2024/04/08 10:09:57;;;;;;;10.10;2.15;;;;;;;;;;5454146;26;20043;-74
2024/04/08 10:12:31;;;;;;;14.48;2.15;;;;;;;;;;5453967;26;20002;-75
2024/04/08 10:15:07;;;;;;;7.68;2.53;;;;;;;;;;5455015;26;20087;-74
2024/04/08 10:17:34;;;;;;;11.23;1.98;;;;;;;;;;5458013;26;19999;-76
2024/04/08 10:20:02;;;;;;;20.13;2.70;;;;;;;;;;5455375;26;19998;-75
2024/04/08 10:22:29;;;;;;;16.55;3.03;;;;;;;;;;5453611;26;20006;-75
2024/04/08 10:24:55;;;;;;;15.80;2.33;;;;;;;;;;5454572;26;20038;-74
2024/04/08 10:27:26;;;;;;;17.25;3.17;;;;;;;;;;5453891;26;20049;-74
2024/04/08 10:29:52;;;;;;;;;;;;;;;;;;5455615;26;20005;-75
2024/04/08 10:32:18;;;;;;;15.15;2.65;;;;;;;;;;5458361;26;20031;-73
2024/04/08 10:34:44;;;;;;;13.85;3.22;;;;;;;;;;5457335;26;19999;-75
2024/04/08 10:37:11;;;;;;;14.65;2.88;;;;;;;;;;5454553;26;19999;-75
2024/04/08 10:39:37;;;;;;;13.63;2.45;;;;;;;;;;5458424;26;20010;-76
2024/04/08 10:42:12;;;;;;;14.10;2.67;;;;;;;;;;5457809;26;20321;-75
2024/04/08 10:44:38;;;;;;;9.88;2.38;;;;;;;;;;5456961;26;20333;-75
2024/04/08 10:47:06;;;;;;;26.40;3.38;;;;;;;;;;5454711;26;20066;-75
2024/04/08 10:49:32;;;;;;;15.98;2.53;;;;;;;;;;5454562;26;20029;-75
2024/04/08 10:51:58;;;;;;;16.33;2.65;;;;;;;;;;5455758;26;20067;-75
2024/04/08 10:54:24;;;;;;;16.63;2.60;;;;;;;;;;5454911;26;19998;-75
2024/04/08 10:56:50;;;;;;;9.70;3.30;;;;;;;;;;5457913;26;20002;-75
2024/04/08 10:59:16;;;;;;;14.65;3.30;;;;;;;;;;5456847;26;20010;-75
2024/04/08 11:01:42;;;;;;;15.13;3.17;;;;;;;;;;5453680;26;20027;-76
2024/04/08 11:04:08;;;;;;;19.83;2.85;;;;;;;;;;5454334;26;20005;-75
2024/04/08 11:06:35;;;;;;;14.60;2.90;;;;;;;;;;5454517;26;19999;-74
2024/04/08 11:09:01;;;;;;;15.95;3.53;;;;;;;;;;5453350;26;20002;-75
2024/04/08 11:11:27;;;;;;;18.42;3.28;;;;;;;;;;5454749;26;19999;-75
2024/04/08 11:13:53;;;;;;;14.43;1.95;;;;;;;;;;5453736;26;20006;-76
2024/04/08 11:16:19;;;;;;;12.15;3.08;;;;;;;;;;5457353;26;20039;-76
2024/04/08 11:18:48;;;;;;;12.38;2.88;;;;;;;;;;5458233;26;20071;-75
2024/04/08 11:21:14;;;;;;;9.23;2.97;;;;;;;;;;5454760;26;20002;-75
2024/04/08 11:23:41;;;;;;;18.83;4.05;;;;;;;;;;5458283;26;19995;-75
2024/04/08 11:26:08;;;;;;;19.27;3.42;;;;;;;;;;5457198;26;20032;-75
2024/04/08 11:28:36;;;;;;;18.17;3.25;;;;;;;;;;5455059;26;20040;-73
2024/04/08 11:31:04;;;;;;;19.15;3.42;;;;;;;;;;5456954;26;19999;-75
2024/04/08 11:33:30;;;;;;;20.67;4.53;;;;;;;;;;5457659;26;20006;-75
2024/04/08 11:35:57;;;;;;;9.55;2.88;;;;;;;;;;5458055;26;19999;-75
2024/04/08 11:38:23;;;;;;;11.50;2.67;;;;;;;;;;5458149;26;20022;-76
2024/04/08 11:40:49;;;;;;;12.90;3.10;;;;;;;;;;5460884;26;19998;-75
2024/04/08 11:43:15;;;;;;;13.38;3.28;;;;;;;;;;5457786;26;19995;-76
2024/04/08 11:45:41;;;;;;;11.25;3.65;;;;;;;;;;5461016;26;20378;-74
2024/04/08 11:48:08;;;;;;;16.13;2.60;;;;;;;;;;5460905;26;20007;-75
2024/04/08 11:50:34;;;;;;;11.20;2.97;;;;;;;;;;5458023;26;20194;-75
2024/04/08 11:53:00;;;;;;;9.95;3.10;;;;;;;;;;5460299;26;19998;-73
2024/04/08 11:55:26;;;;;;;13.38;2.58;;;;;;;;;;5461097;26;19995;-75
2024/04/08 11:57:52;;;;;;;13.65;2.63;;;;;;;;;;5459708;26;20353;-74
2024/04/08 12:00:20;;;;;;;11.10;2.65;;;;;;;;;;5459737;26;19994;-75
2024/04/08 12:02:47;;;;;;;20.85;3.53;;;;;;;;;;5456464;26;20123;-75
2024/04/08 12:05:13;;;;;;;9.93;2.10;;;;;;;;;;5460199;26;20035;-75
2024/04/08 12:07:39;;;;;;;15.23;3.47;;;;;;;;;;5462332;26;19998;-74
2024/04/08 12:10:09;;;;;;;16.80;3.22;;;;;;;;;;5458811;26;20056;-75
2024/04/08 12:12:35;;;;;;;18.27;3.15;;;;;;;;;;5461696;26;20041;-76
2024/04/08 12:15:04;;;;;;;22.45;3.00;;;;;;;;;;5459642;26;20434;-75
2024/04/08 12:17:30;;;;;;;15.68;2.97;;;;;;;;;;5457278;26;19995;-76
2024/04/08 12:19:56;;;;;;;21.38;3.60;;;;;;;;;;5459926;26;20006;-75
2024/04/08 12:22:22;;;;;;;16.23;2.75;;;;;;;;;;5457645;26;20006;-75
2024/04/08 12:24:48;;;;;;;17.17;3.55;;;;;;;;;;5454420;26;19995;-75
2024/04/08 12:27:15;;;;;;;29.23;4.80;;;;;;;;;;5461442;26;19995;-76
2024/04/08 12:29:41;;;;;;;11.50;3.13;;;;;;;;;;5456696;26;20031;-75
2024/04/08 12:32:08;;;;;;;9.27;2.58;;;;;;;;;;5457594;26;19995;-75
2024/04/08 12:34:34;;;;;;;9.52;2.88;;;;;;;;;;5459615;26;20464;-74
2024/04/08 12:37:00;;;;;;;12.98;2.38;;;;;;;;;;5461725;26;20052;-76
2024/04/08 12:39:26;;;;;;;18.30;2.58;;;;;;;;;;5461038;26;20006;-75
2024/04/08 12:41:52;;;;;;;10.52;2.58;;;;;;;;;;5457306;26;19995;-75
2024/04/08 12:44:19;;;;;;;19.83;2.30;;;;;;;;;;5455988;26;19991;-76
2024/04/08 12:46:45;;;;;;;16.67;2.72;;;;;;;;;;5454360;26;19995;-74
2024/04/08 12:49:14;;;;;;;14.55;2.78;;;;;;;;;;5456765;26;20453;-75
2024/04/08 12:51:40;;;;;;;10.05;2.40;;;;;;;;;;5455861;26;20444;-76
2024/04/08 12:54:06;;;;;;;11.43;2.13;;;;;;;;;;5455827;26;19998;-76
2024/04/08 12:56:32;;;;;;;14.55;3.13;;;;;;;;;;5456313;26;20006;-74
2024/04/08 12:58:58;;;;;;;17.35;3.33;;;;;;;;;;5459513;26;20026;-75
2024/04/08 13:01:27;;;;;;;10.77;2.75;;;;;;;;;;5458935;26;19995;-75
2024/04/08 13:03:54;;;;;;;10.50;2.95;;;;;;;;;;5455533;26;20015;-74
2024/04/08 13:06:20;;;;;;;13.43;2.80;;;;;;;;;;5453737;26;20091;-75
2024/04/08 13:08:46;;;;;;;18.88;3.42;;;;;;;;;;5454817;26;20041;-76
2024/04/08 13:11:13;;;;;;;14.65;2.85;;;;;;;;;;5458780;26;20348;-74
2024/04/08 13:13:42;;;;;;;14.38;2.65;;;;;;;;;;5453692;26;20009;-75
2024/04/08 13:16:08;;;;;;;13.35;2.65;;;;;;;;;;5454334;26;20449;-76
2024/04/08 13:18:38;;;;;;;15.55;3.05;;;;;;;;;;5455107;26;20040;-75
2024/04/08 13:21:04;;;;;;;10.03;3.13;;;;;;;;;;5454748;26;20045;-75
2024/04/08 13:23:30;;;;;;;14.13;3.83;;;;;;;;;;5455215;26;20257;-72
2024/04/08 13:25:56;;;;;;;18.38;3.28;;;;;;;;;;5455934;26;19998;-75
2024/04/08 13:28:23;;;;;;;12.35;2.45;;;;;;;;;;5454077;26;19995;-75
2024/04/08 13:30:49;;;;;;;16.55;3.30;;;;;;;;;;5453707;26;19999;-75
2024/04/08 13:33:15;;;;;;;32.78;3.42;;;;;;;;;;5454362;26;19995;-74
2024/04/08 13:35:42;;;;;;;14.55;2.53;;;;;;;;;;5455013;26;19999;-75
2024/04/08 13:38:08;;;;;;;9.65;2.63;;;;;;;;;;5454408;26;19998;-75
2024/04/08 13:40:34;;;;;;;10.13;2.88;;;;;;;;;;5457623;26;20384;-75
2024/04/08 13:43:00;;;;;;;10.50;2.40;;;;;;;;;;5455560;26;20006;-75
2024/04/08 13:45:26;;;;;;;14.43;2.65;;;;;;;;;;5454361;26;20014;-75
2024/04/08 13:47:53;;;;;;;11.48;2.03;;;;;;;;;;5455567;26;20007;-75
2024/04/08 13:50:19;;;;;;;10.77;2.33;;;;;;;;;;5453441;26;19999;-75
2024/04/08 13:52:45;;;;;;;12.10;3.10;;;;;;;;;;5451464;26;20114;-74
2024/04/08 13:55:11;;;;;;;17.10;2.83;;;;;;;;;;5452019;26;20093;-75
2024/04/08 13:57:37;;;;;;;10.63;2.63;;;;;;;;;;5453977;26;20007;-75
2024/04/08 14:00:05;;;;;;;14.35;2.90;;;;;;;;;;5455898;26;20283;-76
2024/04/08 14:02:31;;;;;;;16.45;2.53;;;;;;;;;;5454502;26;20079;-75
2024/04/08 14:04:57;;;;;;;11.85;2.65;;;;;;;;;;5454230;26;20017;-75
2024/04/08 14:07:23;;;;;;;13.18;2.67;;;;;;;;;;5452706;26;20026;-74
2024/04/08 14:09:49;;;;;;;13.30;2.58;;;;;;;;;;5453178;26;20302;-74
2024/04/08 14:12:15;;;;;;;17.17;2.15;;;;;;;;;;5453870;26;19995;-74
2024/04/08 14:14:41;;;;;;;14.80;2.38;;;;;;;;;;5454519;26;20067;-74
2024/04/08 14:17:07;;;;;;;14.20;2.30;;;;;;;;;;5454135;26;20067;-76
2024/04/08 14:19:33;;;;;;;14.15;2.28;;;;;;;;;;5454965;26;19995;-75
2024/04/08 14:21:59;;;;;;;22.60;3.53;;;;;;;;;;5454828;26;19995;-74
2024/04/08 14:24:25;;;;;;;13.27;2.92;;;;;;;;;;5452642;26;20289;-74
2024/04/08 14:26:51;;;;;;;10.73;2.05;;;;;;;;;;5453037;26;20437;-76
2024/04/08 14:29:17;;;;;;;9.55;2.38;;;;;;;;;;5455236;26;20005;-74